Airfield :
LOGIN :

Register | Disclaimer

   EN    FR    IT 

 










Legend :    VFR   Marginal VFR   IFR   Intensive IFR   Very Intensive IFR
Visi :
Ceiling :
>= 8 km
>= 3000ft
5 to 8 km
1000 to 3000 ft
1500m to 5 km
500 to 1000 ft
800 to 1500m
200 to 500 ft
< 800m
< 200 ft
Symbols :   Thunderstorms  Fog  Heavy snow  Heavy precipitations  Wind > 20 kt
SIGMETs :     Misc.  Thunderstorms  Icing  Turbulence  Mountain Waves  Volcanic Ashes






- Airport Elevation : 200 ft


EVGA - Lielvarde

CURRENT METAR :
  • 220950Z VRB05KT CAVOK 21/11 Q1012 NOSIG

EXPIRED METARs :
  • 220920Z 09004KT 020V180 CAVOK 20/10 Q1012 NOSIG
  • 220850Z 12005KT 050V190 CAVOK 20/10 Q1012 NOSIG
  • 220820Z 08003KT 030V120 CAVOK 20/10 Q1012 NOSIG
  • 220750Z 09003KT 060V150 CAVOK 18/09 Q1012 NOSIG
  • 220720Z 05003KT 010V100 CAVOK 18/10 Q1012 NOSIG
  • 220650Z 06005KT CAVOK 17/11 Q1012 NOSIG
  • 220620Z 05003KT 020V110 CAVOK 17/11 Q1013 NOSIG
  • 220550Z VRB02KT CAVOK 16/10 Q1013 NOSIG
  • 220520Z 09004KT 060V120 CAVOK 15/11 Q1013 NOSIG

TAF TAF EVGA
Valid from the 22 at 09:00 until the 23 at 09:00 UTC


220801Z 2209/2309 09005KT CAVOK
TEMPO 2212/2218 SCT030CB
TEMPO 2218/2301 3000 TSRA SCT005 BKN015CB
BECMG 2301/2302 OVC007
TEMPO 2302/2308 2000 -RA BR BKN002
PROB40
TEMPO 2303/2306 0700 FG BKN001



MET'MAP, your aeronautical weather chart ! - Copyright ORBIFLY December 2007 - Disclaimer

ORBIFLY MET'MAP TEAM :

Programming & Development : Alexandra Zaïnal
Original concept : Baudouin d'Aumeries
Technical & hardware support : Manuel Goepfert
Assistance : Marc-Olivier Méhu




SOURCES & CREDITS :

   NOAA